Time;durP1;ratioP1;P1;durP2;ratioP2;P2;SDS_P1;SDS_P2;PMS_P1;PMS_P2;Temp;Humidity;BMP_temperature;BMP_pressure;BME280_temperature;BME280_humidity;BME280_pressure;Samples;Min_cycle;Max_cycle;Signal;HPM_P1;HPM_P2
2021/04/17 00:00:17;;;;;;;;;;;8.60;67.90;;;;;;4305711;33;20050;-74
2021/04/17 00:02:44;;;;;;;;;;;8.60;67.90;;;;;;4293023;33;20360;-73
2021/04/17 00:05:15;;;;;;;;;;;8.60;68.00;;;;;;4305018;33;20006;-74
2021/04/17 00:07:45;;;;;;;;;;;8.50;67.90;;;;;;4293317;33;19994;-74
2021/04/17 00:10:18;;;;;;;;;;;8.50;67.90;;;;;;4318321;33;20376;-74
2021/04/17 00:12:48;;;;;;;;;;;8.50;68.00;;;;;;4293713;33;20113;-73
2021/04/17 00:15:17;;;;;;;;;;;8.50;68.10;;;;;;4304994;33;20002;-73
2021/04/17 00:17:49;;;;;;;;;;;8.50;68.20;;;;;;4317007;33;20060;-74
2021/04/17 00:20:16;;;;;;;;;;;8.50;68.20;;;;;;4317451;33;20029;-74
2021/04/17 00:22:44;;;;;;;;;;;8.50;68.20;;;;;;4293101;33;20053;-74
2021/04/17 00:25:13;;;;;;;;;;;8.50;68.20;;;;;;4293022;33;20062;-74
2021/04/17 00:27:43;;;;;;;;;;;8.50;68.20;;;;;;4305424;33;20085;-74
2021/04/17 00:30:12;;;;;;;;;;;8.50;68.20;;;;;;4318037;33;20033;-74
2021/04/17 00:32:41;;;;;;;;;;;8.50;68.30;;;;;;4317672;33;20014;-74
2021/04/17 00:35:11;;;;;;;;;;;8.40;68.30;;;;;;4304794;33;20425;-74
2021/04/17 00:37:38;;;;;;;;;;;8.40;68.30;;;;;;4304933;33;20073;-74
2021/04/17 00:40:10;;;;;;;;;;;8.40;68.30;;;;;;4318193;33;20002;-74
2021/04/17 00:42:37;;;;;;;;;;;8.50;68.50;;;;;;4292703;33;20101;-74
2021/04/17 00:45:05;;;;;;;;;;;8.40;68.40;;;;;;4315995;33;42395;-74
2021/04/17 00:47:34;;;;;;;;;;;8.40;68.40;;;;;;4291437;33;35632;-74
2021/04/17 00:50:02;;;;;;;;;;;8.40;68.50;;;;;;4291096;33;47099;-74
2021/04/17 00:52:28;;;;;;;;;;;8.40;68.50;;;;;;4316959;33;42121;-74
2021/04/17 00:54:58;;;;;;;;;;;8.40;68.60;;;;;;4303473;33;27001;-74
2021/04/17 00:57:27;;;;;;;;;;;8.40;68.60;;;;;;4316104;33;25330;-74
2021/04/17 00:59:54;;;;;;;;;;;8.40;68.60;;;;;;4303931;33;30054;-73
2021/04/17 01:02:25;;;;;;;;;;;8.40;68.70;;;;;;4303204;33;26405;-74
2021/04/17 01:04:56;;;;;;;;;;;8.30;68.60;;;;;;4317551;33;20057;-73
2021/04/17 01:07:28;;;;;;;;;;;8.30;68.70;;;;;;4315429;33;40913;-74
2021/04/17 01:10:23;;;;;;;;;;;8.30;68.70;;;;;;4304567;33;24315;-74
2021/04/17 01:12:55;;;;;;;;;;;8.30;68.70;;;;;;4311045;33;39056;-74
2021/04/17 01:15:25;;;;;;;;;;;8.30;68.80;;;;;;4303401;33;37045;-73
2021/04/17 01:17:58;;;;;;;;;;;8.30;69.00;;;;;;4291695;33;25723;-74
2021/04/17 01:20:43;;;;;;;;;;;8.30;69.00;;;;;;4316328;33;40489;-73
2021/04/17 01:23:16;;;;;;;;;;;8.30;69.10;;;;;;4315020;33;44025;-74
2021/04/17 01:25:48;;;;;;;;;;;8.20;69.00;;;;;;4316549;33;43107;-74
2021/04/17 01:28:18;;;;;;;;;;;8.20;69.10;;;;;;4316208;33;43533;-74
2021/04/17 01:30:45;;;;;;;;;;;8.20;69.10;;;;;;4315039;33;44255;-73
2021/04/17 01:33:12;;;;;;;;;;;8.20;69.10;;;;;;4302689;33;44830;-74
2021/04/17 01:35:40;;;;;;;;;;;8.20;69.10;;;;;;4302693;33;40686;-74
2021/04/17 01:38:16;;;;;;;;;;;8.20;69.10;;;;;;4302623;33;39573;-74
2021/04/17 01:40:52;;;;;;;;;;;8.20;69.10;;;;;;4316878;33;20014;-74
2021/04/17 01:43:21;;;;;;;;;;;8.10;69.10;;;;;;4303426;33;40580;-74
2021/04/17 01:45:49;;;;;;;;;;;8.20;69.20;;;;;;4316893;33;20119;-74
2021/04/17 01:48:21;;;;;;;;;;;8.10;69.20;;;;;;4303406;33;30165;-74
2021/04/17 01:50:51;;;;;;;;;;;8.10;69.20;;;;;;4317519;33;20025;-74
2021/04/17 01:53:23;;;;;;;;;;;8.10;69.30;;;;;;4303850;33;20068;-74
2021/04/17 01:55:59;;;;;;;;;;;8.10;69.40;;;;;;4317200;33;20392;-74
2021/04/17 01:58:30;;;;;;;;;;;8.10;69.50;;;;;;4304214;33;20362;-74
2021/04/17 02:00:58;;;;;;;;;;;8.10;69.50;;;;;;4303528;33;34293;-74
2021/04/17 02:03:27;;;;;;;;;;;8.00;69.50;;;;;;4315843;33;30965;-74
2021/04/17 02:05:57;;;;;;;;;;;8.10;69.70;;;;;;4316799;33;20014;-74
2021/04/17 02:08:26;;;;;;;;;;;8.00;69.70;;;;;;4317456;33;20437;-74
2021/04/17 02:10:53;;;;;;;;;;;8.00;69.80;;;;;;4290796;33;40928;-74
2021/04/17 02:13:23;;;;;;;;;;;8.00;69.80;;;;;;4314974;33;42562;-74
2021/04/17 02:15:50;;;;;;;;;;;8.00;69.90;;;;;;4315975;33;20036;-74
2021/04/17 02:18:42;;;;;;;;;;;8.00;69.90;;;;;;4318684;33;20096;-74
2021/04/17 02:21:18;;;;;;;;;;;8.00;70.10;;;;;;4297410;33;20442;-74
2021/04/17 02:23:47;;;;;;;;;;;8.00;70.20;;;;;;4294898;33;20033;-74
2021/04/17 02:26:14;;;;;;;;;;;8.00;70.30;;;;;;4318745;33;43695;-74
2021/04/17 02:28:46;;;;;;;;;;;8.00;70.40;;;;;;4319865;33;20380;-73
2021/04/17 02:31:16;;;;;;;;;;;8.00;70.40;;;;;;4318732;33;43017;-74
2021/04/17 02:33:43;;;;;;;;;;;8.00;70.60;;;;;;4317984;33;44345;-74
2021/04/17 02:36:15;;;;;;;;;;;8.00;70.60;;;;;;4307381;33;20013;-74
2021/04/17 02:38:42;;;;;;;;;;;7.90;70.50;;;;;;4319791;33;20020;-74
2021/04/17 02:41:10;;;;;;;;;;;8.00;70.60;;;;;;4306562;33;20069;-74
2021/04/17 02:43:41;;;;;;;;;;;8.00;70.70;;;;;;4319849;33;20421;-74
2021/04/17 02:46:13;;;;;;;;;;;7.90;70.60;;;;;;4305953;33;42312;-74
2021/04/17 02:48:43;;;;;;;;;;;7.90;71.50;;;;;;4305823;33;33231;-74
2021/04/17 02:51:16;;;;;;;;;;;7.90;70.70;;;;;;4317214;33;44111;-74
2021/04/17 02:53:46;;;;;;;;;;;7.90;71.00;;;;;;4319075;33;20014;-74
2021/04/17 02:56:21;;;;;;;;;;;7.90;70.80;;;;;;4317681;33;25087;-74
2021/04/17 02:58:47;;;;;;;;;;;7.90;70.80;;;;;;4305325;33;41697;-74
2021/04/17 03:01:20;;;;;;;;;;;7.90;70.80;;;;;;4305636;33;20046;-74
2021/04/17 03:03:46;;;;;;;;;;;7.90;70.80;;;;;;4318458;33;41297;-74
2021/04/17 03:06:15;;;;;;;;;;;7.90;71.00;;;;;;4319076;33;20002;-74
2021/04/17 03:08:45;;;;;;;;;;;7.90;71.00;;;;;;4304867;33;42801;-74
2021/04/17 03:11:14;;;;;;;;;;;7.80;71.00;;;;;;4318895;33;20041;-74
2021/04/17 03:13:47;;;;;;;;;;;7.90;71.10;;;;;;4318634;33;20010;-74
2021/04/17 03:16:14;;;;;;;;;;;7.80;71.10;;;;;;4318281;33;37938;-74
2021/04/17 03:18:42;;;;;;;;;;;7.90;71.20;;;;;;4305817;33;20002;-74
2021/04/17 03:21:09;;;;;;;;;;;7.80;71.20;;;;;;4318303;33;30820;-74
2021/04/17 03:23:39;;;;;;;;;;;7.80;71.20;;;;;;4319287;33;20059;-74
2021/04/17 03:26:11;;;;;;;;;;;7.80;71.30;;;;;;4304332;33;45658;-74
2021/04/17 03:28:38;;;;;;;;;;;7.80;71.30;;;;;;4304780;33;29822;-74
2021/04/17 03:31:04;;;;;;;;;;;7.80;71.40;;;;;;4317878;33;43214;-74
2021/04/17 03:33:36;;;;;;;;;;;7.80;71.50;;;;;;4318622;33;20061;-74
2021/04/17 03:36:08;;;;;;;;;;;7.80;71.50;;;;;;4317032;33;33285;-74
2021/04/17 03:38:37;;;;;;;;;;;7.80;71.50;;;;;;4318035;33;30340;-74
2021/04/17 03:41:04;;;;;;;;;;;7.80;71.50;;;;;;4305213;33;20367;-74
2021/04/17 03:43:39;;;;;;;;;;;7.80;71.50;;;;;;4304429;33;42626;-75
2021/04/17 03:46:06;;;;;;;;;;;7.80;71.60;;;;;;4304002;33;44530;-75
2021/04/17 03:48:35;;;;;;;;;;;7.70;71.50;;;;;;4318813;33;20005;-74
2021/04/17 03:51:10;;;;;;;;;;;7.80;71.50;;;;;;4305134;33;20422;-74
2021/04/17 03:53:40;;;;;;;;;;;7.80;71.50;;;;;;4304009;33;46443;-74
2021/04/17 03:56:09;;;;;;;;;;;7.70;71.50;;;;;;4318227;33;20018;-74
2021/04/17 03:58:36;;;;;;;;;;;7.70;71.60;;;;;;4305186;33;20018;-74
2021/04/17 04:01:06;;;;;;;;;;;7.70;71.60;;;;;;4318652;33;20033;-73
2021/04/17 04:03:36;;;;;;;;;;;7.70;71.70;;;;;;4316537;33;41047;-74
2021/04/17 04:06:02;;;;;;;;;;;7.70;71.70;;;;;;4317061;33;45291;-73
2021/04/17 04:08:32;;;;;;;;;;;7.70;71.70;;;;;;4317002;33;37312;-74
2021/04/17 04:10:59;;;;;;;;;;;7.60;71.60;;;;;;4292227;33;39804;-74
2021/04/17 04:13:32;;;;;;;;;;;7.60;71.60;;;;;;4305059;33;20376;-74
2021/04/17 04:16:04;;;;;;;;;;;7.60;71.60;;;;;;4317256;33;45036;-74
2021/04/17 04:18:31;;;;;;;;;;;7.60;71.60;;;;;;4317369;33;43623;-74
2021/04/17 04:21:09;;;;;;;;;;;7.60;71.70;;;;;;4318272;33;20065;-74
2021/04/17 04:23:39;;;;;;;;;;;7.60;71.60;;;;;;4303987;33;43752;-74
2021/04/17 04:26:07;;;;;;;;;;;7.60;71.70;;;;;;4318238;33;20353;-74
2021/04/17 04:28:37;;;;;;;;;;;7.60;71.80;;;;;;4317003;33;44659;-74
2021/04/17 04:31:05;;;;;;;;;;;7.50;71.70;;;;;;4317108;33;29880;-73
2021/04/17 04:33:32;;;;;;;;;;;7.50;71.70;;;;;;4316774;33;43310;-74
2021/04/17 04:35:59;;;;;;;;;;;7.50;71.80;;;;;;4316455;33;45109;-74
2021/04/17 04:38:25;;;;;;;;;;;7.50;71.80;;;;;;4304786;33;20020;-74
2021/04/17 04:40:58;;;;;;;;;;;7.50;72.60;;;;;;4317812;33;20057;-74
2021/04/17 04:43:27;;;;;;;;;;;7.50;71.80;;;;;;4318024;33;20017;-73
2021/04/17 04:45:56;;;;;;;;;;;7.40;71.80;;;;;;4303991;33;35790;-74
2021/04/17 04:48:32;;;;;;;;;;;7.40;71.80;;;;;;4304626;33;20058;-74
2021/04/17 04:51:07;;;;;;;;;;;7.40;71.90;;;;;;4317228;33;31343;-74
2021/04/17 04:53:40;;;;;;;;;;;7.40;71.90;;;;;;4316751;33;44649;-74
2021/04/17 04:56:09;;;;;;;;;;;7.40;72.00;;;;;;4303037;33;44476;-74
2021/04/17 04:58:40;;;;;;;;;;;7.40;72.00;;;;;;4303055;33;45831;-74
2021/04/17 05:01:11;;;;;;;;;;;7.40;72.00;;;;;;4304593;33;20032;-74
2021/04/17 05:03:46;;;;;;;;;;;7.30;72.00;;;;;;4290052;33;20026;-74
2021/04/17 05:06:15;;;;;;;;;;;7.30;72.00;;;;;;4289040;33;43555;-74
2021/04/17 05:08:46;;;;;;;;;;;7.30;72.10;;;;;;4289543;33;20408;-74
2021/04/17 05:11:18;;;;;;;;;;;7.30;72.10;;;;;;4302042;33;42740;-74
2021/04/17 05:13:44;;;;;;;;;;;7.30;72.20;;;;;;4276668;33;36346;-73
2021/04/17 05:16:14;;;;;;;;;;;7.30;72.30;;;;;;4289926;33;20430;-74
2021/04/17 05:18:47;;;;;;;;;;;7.30;72.30;;;;;;4289947;33;20018;-74
2021/04/17 05:21:16;;;;;;;;;;;7.30;72.40;;;;;;4276608;33;44968;-74
2021/04/17 05:24:03;;;;;;;;;;;7.30;72.40;;;;;;4290629;33;44232;-73
2021/04/17 05:26:30;;;;;;;;;;;7.30;72.50;;;;;;4289858;33;20088;-74
2021/04/17 05:29:00;;;;;;;;;;;7.30;72.50;;;;;;4301047;33;28812;-74
2021/04/17 05:31:31;;;;;;;;;;;7.30;72.60;;;;;;4302291;33;20025;-73
2021/04/17 05:33:58;;;;;;;;;;;7.20;72.60;;;;;;4288413;33;38650;-74
2021/04/17 05:36:30;;;;;;;;;;;7.20;72.70;;;;;;4288345;33;43950;-74
2021/04/17 05:39:03;;;;;;;;;;;7.20;72.80;;;;;;4302925;33;20010;-73
2021/04/17 05:41:29;;;;;;;;;;;7.20;72.80;;;;;;4288980;33;21147;-74
2021/04/17 05:43:58;;;;;;;;;;;7.20;72.90;;;;;;4300212;33;42100;-73
2021/04/17 05:46:28;;;;;;;;;;;7.20;73.00;;;;;;4301661;33;32318;-74
2021/04/17 05:48:57;;;;;;;;;;;7.20;73.20;;;;;;4302314;33;20053;-74
2021/04/17 05:51:24;;;;;;;;;;;7.20;73.30;;;;;;4288459;33;44532;-74
2021/04/17 05:53:51;;;;;;;;;;;7.10;73.30;;;;;;4302716;33;20006;-74
2021/04/17 05:56:22;;;;;;;;;;;7.10;73.40;;;;;;4289084;33;20551;-74
2021/04/17 05:58:52;;;;;;;;;;;7.20;73.50;;;;;;4301210;33;43594;-74
2021/04/17 06:01:19;;;;;;;;;;;7.20;73.60;;;;;;4303481;33;20057;-74
2021/04/17 06:03:48;;;;;;;;;;;7.20;73.70;;;;;;4317467;33;20017;-74
2021/04/17 06:06:17;;;;;;;;;;;7.20;73.70;;;;;;4316269;33;35005;-74
2021/04/17 06:08:44;;;;;;;;;;;7.20;73.80;;;;;;4303705;33;20010;-74
2021/04/17 06:11:16;;;;;;;;;;;7.20;74.00;;;;;;4316695;33;20010;-73
2021/04/17 06:13:43;;;;;;;;;;;7.20;74.10;;;;;;4304433;33;20024;-73
2021/04/17 06:16:10;;;;;;;;;;;7.20;74.10;;;;;;4317428;33;20121;-74
2021/04/17 06:18:37;;;;;;;;;;;7.20;74.20;;;;;;4304256;33;20009;-73
2021/04/17 06:21:14;;;;;;;;;;;7.20;74.30;;;;;;4303848;33;20399;-74
2021/04/17 06:23:43;;;;;;;;;;;7.20;74.40;;;;;;4303615;33;24320;-74
2021/04/17 06:26:13;;;;;;;;;;;7.20;74.40;;;;;;4303501;33;20061;-74
2021/04/17 06:28:40;;;;;;;;;;;7.20;74.40;;;;;;4317085;33;20113;-74
2021/04/17 06:31:12;;;;;;;;;;;7.20;74.60;;;;;;4317210;33;20061;-73
2021/04/17 06:33:43;;;;;;;;;;;7.20;74.60;;;;;;4316901;33;20017;-73
2021/04/17 06:36:10;;;;;;;;;;;7.20;74.70;;;;;;4302073;33;45318;-73
2021/04/17 06:38:39;;;;;;;;;;;7.20;74.80;;;;;;4315964;33;44660;-73
2021/04/17 06:41:11;;;;;;;;;;;7.20;74.90;;;;;;4303757;33;20346;-73
2021/04/17 06:43:42;;;;;;;;;;;7.20;75.10;;;;;;4303369;33;20073;-74
2021/04/17 06:46:11;;;;;;;;;;;7.20;75.10;;;;;;4315705;33;43798;-75
2021/04/17 06:48:41;;;;;;;;;;;7.20;75.10;;;;;;4316152;33;20016;-75
2021/04/17 06:51:15;;;;;;;;;;;7.20;75.10;;;;;;4315767;33;34772;-74
2021/04/17 06:53:47;;;;;;;;;;;7.20;75.20;;;;;;4316029;33;20013;-75
2021/04/17 06:56:16;;;;;;;;;;;7.20;75.20;;;;;;4303979;33;20012;-75
2021/04/17 06:58:46;;;;;;;;;;;7.20;75.40;;;;;;4316262;33;21456;-75
2021/04/17 07:01:13;;;;;;;;;;;7.20;75.50;;;;;;4315426;33;42447;-74
2021/04/17 07:03:42;;;;;;;;;;;7.20;75.40;;;;;;4304063;33;45549;-74
2021/04/17 07:06:11;;;;;;;;;;;7.20;75.50;;;;;;4318259;33;38545;-75
2021/04/17 07:08:44;;;;;;;;;;;7.20;75.40;;;;;;4319245;33;20001;-75
2021/04/17 07:11:13;;;;;;;;;;;7.20;75.50;;;;;;4293223;33;44872;-74
2021/04/17 07:14:01;;;;;;;;;;;7.20;75.70;;;;;;4318943;33;20006;-75
2021/04/17 07:16:33;;;;;;;;;;;7.20;75.50;;;;;;4296060;33;20016;-74
2021/04/17 07:19:02;;;;;;;;;;;7.20;75.40;;;;;;4306042;33;20437;-75
2021/04/17 07:21:37;;;;;;;;;;;7.30;75.60;;;;;;4319302;33;20057;-75
2021/04/17 07:24:22;;;;;;;;;;;7.30;75.50;;;;;;4318479;33;20054;-75
2021/04/17 07:26:48;;;;;;;;;;;7.30;75.50;;;;;;4306126;33;20393;-75
2021/04/17 07:29:20;;;;;;;;;;;7.30;75.90;;;;;;4318644;33;20111;-75
2021/04/17 07:31:51;;;;;;;;;;;7.30;76.10;;;;;;4319207;33;20500;-75
2021/04/17 07:34:25;;;;;;;;;;;7.30;75.90;;;;;;4318034;33;20347;-75
2021/04/17 07:36:57;;;;;;;;;;;7.30;75.70;;;;;;4319289;33;20012;-75
2021/04/17 07:39:34;;;;;;;;;;;7.30;75.80;;;;;;4318150;33;20395;-75
2021/04/17 07:42:04;;;;;;;;;;;7.30;76.10;;;;;;4319049;33;20064;-75
2021/04/17 07:44:36;;;;;;;;;;;7.30;76.10;;;;;;4317731;33;20072;-75
2021/04/17 07:47:06;;;;;;;;;;;7.40;76.10;;;;;;4306126;33;20480;-75
2021/04/17 07:49:37;;;;;;;;;;;7.30;76.00;;;;;;4305246;33;20426;-75
2021/04/17 07:52:07;;;;;;;;;;;7.40;76.10;;;;;;4304139;33;46646;-74
2021/04/17 07:54:40;;;;;;;;;;;7.40;76.10;;;;;;4318671;33;20066;-75
2021/04/17 07:57:10;;;;;;;;;;;7.40;76.20;;;;;;4293603;33;20478;-75
2021/04/17 07:59:38;;;;;;;;;;;7.40;76.20;;;;;;4305679;33;20396;-75
2021/04/17 08:02:05;;;;;;;;;;;7.40;76.20;;;;;;4305226;33;20057;-75
2021/04/17 08:04:34;;;;;;;;;;;7.40;76.20;;;;;;4305453;33;20036;-75
2021/04/17 08:07:04;;;;;;;;;;;7.40;76.30;;;;;;4305375;33;20029;-74
2021/04/17 08:09:36;;;;;;;;;;;7.50;76.40;;;;;;4293169;33;20057;-75
2021/04/17 08:12:03;;;;;;;;;;;7.50;76.40;;;;;;4305039;33;20018;-73
2021/04/17 08:14:41;;;;;;;;;;;7.50;76.30;;;;;;4317538;33;20013;-75
2021/04/17 08:17:07;;;;;;;;;;;7.50;76.30;;;;;;4303863;33;34646;-75
2021/04/17 08:19:34;;;;;;;;;;;7.50;76.40;;;;;;4317267;33;42006;-75
2021/04/17 08:22:01;;;;;;;;;;;7.50;76.40;;;;;;4304603;33;20002;-75
2021/04/17 08:24:31;;;;;;;;;;;7.50;76.50;;;;;;4304807;33;20008;-75
2021/04/17 08:27:00;;;;;;;;;;;7.50;76.50;;;;;;4303587;33;41740;-75
2021/04/17 08:29:44;;;;;;;;;;;7.50;76.60;;;;;;4304110;33;26874;-75
2021/04/17 08:32:31;;;;;;;;;;;7.50;76.60;;;;;;4303610;33;42974;-75
2021/04/17 08:34:59;;;;;;;;;;;7.50;76.50;;;;;;4303614;33;44840;-75
2021/04/17 08:37:26;;;;;;;;;;;7.50;76.60;;;;;;4299088;33;20016;-75
2021/04/17 08:39:55;;;;;;;;;;;7.50;76.40;;;;;;4305071;33;20006;-74
2021/04/17 08:42:43;;;;;;;;;;;7.60;76.60;;;;;;4316819;33;20061;-75
2021/04/17 08:45:16;;;;;;;;;;;7.60;76.50;;;;;;4318088;33;20002;-74
2021/04/17 08:47:53;;;;;;;;;;;7.60;76.40;;;;;;4305000;33;20065;-74
2021/04/17 08:50:29;;;;;;;;;;;7.60;76.50;;;;;;4304561;33;20064;-74
2021/04/17 08:52:59;;;;;;;;;;;7.60;76.50;;;;;;4318195;33;20014;-73
2021/04/17 08:55:37;;;;;;;;;;;7.60;76.50;;;;;;4316853;33;42221;-74
2021/04/17 08:58:10;;;;;;;;;;;7.60;76.50;;;;;;4304587;33;20370;-74
2021/04/17 09:01:00;;;;;;;;;;;7.60;76.50;;;;;;4316823;33;20336;-74
2021/04/17 09:03:46;;;;;;;;;;;7.70;76.40;;;;;;4303653;33;20014;-74
2021/04/17 09:06:19;;;;;;;;;;;7.70;76.60;;;;;;4303355;33;43522;-74
2021/04/17 09:09:05;;;;;;;;;;;7.70;76.70;;;;;;4317594;33;20014;-75
2021/04/17 09:11:35;;;;;;;;;;;7.70;76.60;;;;;;4304477;33;20027;-74
2021/04/17 09:14:22;;;;;;;;;;;7.70;76.60;;;;;;4304599;33;20374;-74
2021/04/17 09:16:49;;;;;;;;;;;7.70;76.70;;;;;;4304283;33;20360;-74
2021/04/17 09:22:25;;;;;;;;;;;7.70;76.60;;;;;;4308830;33;36098;-74
2021/04/17 09:25:03;;;;;;;;;;;7.80;76.70;;;;;;4315620;33;20025;-74
2021/04/17 09:27:31;;;;;;;;;;;7.80;76.70;;;;;;4304538;33;20023;-74
2021/04/17 09:29:58;;;;;;;;;;;7.80;76.70;;;;;;4317161;33;20008;-74
2021/04/17 09:32:33;;;;;;;;;;;7.80;76.70;;;;;;4303944;33;20024;-74
2021/04/17 09:35:03;;;;;;;;;;;7.80;76.60;;;;;;4303945;33;20123;-74
2021/04/17 09:37:31;;;;;;;;;;;7.90;76.60;;;;;;4304196;33;20062;-75
2021/04/17 09:40:03;;;;;;;;;;;7.90;76.50;;;;;;4317038;33;20053;-74
2021/04/17 09:42:34;;;;;;;;;;;7.90;76.50;;;;;;4316438;33;20506;-74
2021/04/17 09:45:04;;;;;;;;;;;7.90;76.40;;;;;;4292232;33;20032;-74
2021/04/17 09:47:33;;;;;;;;;;;7.90;76.30;;;;;;4303526;33;20439;-74
2021/04/17 09:50:06;;;;;;;;;;;8.00;76.30;;;;;;4303622;33;20061;-74
2021/04/17 09:52:38;;;;;;;;;;;8.00;76.20;;;;;;4304341;33;20010;-74
2021/04/17 09:55:06;;;;;;;;;;;8.00;76.00;;;;;;4304024;33;20036;-74
2021/04/17 09:57:38;;;;;;;;;;;8.00;75.90;;;;;;4315755;33;20017;-74
2021/04/17 10:00:05;;;;;;;;;;;8.10;75.80;;;;;;4303770;33;20008;-74
2021/04/17 10:02:40;;;;;;;;;;;8.10;75.70;;;;;;4303589;33;20001;-74
2021/04/17 10:05:11;;;;;;;;;;;8.10;75.60;;;;;;4303944;33;20099;-74
2021/04/17 10:07:50;;;;;;;;;;;8.10;75.60;;;;;;4291897;33;20006;-74
2021/04/17 10:10:17;;;;;;;;;;;8.10;75.40;;;;;;4302887;33;44674;-74
2021/04/17 10:12:52;;;;;;;;;;;8.20;75.40;;;;;;4316285;33;20057;-74
2021/04/17 10:15:36;;;;;;;;;;;8.20;75.20;;;;;;4292965;33;20027;-74
2021/04/17 10:18:04;;;;;;;;;;;8.20;75.10;;;;;;4302621;33;44571;-74
2021/04/17 10:20:33;;;;;;;;;;;8.20;75.00;;;;;;4315921;33;44641;-74
2021/04/17 10:23:01;;;;;;;;;;;8.20;74.90;;;;;;4315429;33;43450;-74
2021/04/17 10:25:33;;;;;;;;;;;8.30;74.90;;;;;;4315873;33;43696;-74
2021/04/17 10:28:36;;;;;;;;;;;8.30;74.70;;;;;;4316901;33;20135;-74
2021/04/17 10:31:13;;;;;;;;;;;8.30;74.50;;;;;;4244037;33;44868;-74
2021/04/17 10:33:44;;;;;;;;;;;8.30;74.30;;;;;;4308848;33;25380;-74
2021/04/17 10:36:21;;;;;;;;;;;8.30;74.30;;;;;;4315882;33;43353;-74
2021/04/17 10:38:50;;;;;;;;;;;8.30;74.20;;;;;;4304459;33;43661;-74
2021/04/17 10:41:32;;;;;;;;;;;8.40;74.20;;;;;;4318689;33;43156;-74
2021/04/17 10:44:12;;;;;;;;;;;8.40;74.00;;;;;;4305491;33;40445;-74
2021/04/17 10:46:47;;;;;;;;;;;8.40;73.90;;;;;;4305772;33;26251;-74
2021/04/17 10:49:26;;;;;;;;;;;8.40;73.80;;;;;;4317771;33;39639;-74
2021/04/17 10:51:55;;;;;;;;;;;8.40;73.60;;;;;;4318685;33;20020;-74
2021/04/17 10:54:25;;;;;;;;;;;8.50;73.60;;;;;;4318862;33;21785;-75
2021/04/17 10:56:58;;;;;;;;;;;8.50;73.50;;;;;;4306036;33;19998;-75
2021/04/17 10:59:48;;;;;;;;;;;8.50;73.50;;;;;;4306203;33;20010;-74
2021/04/17 11:02:17;;;;;;;;;;;8.50;73.50;;;;;;4319136;33;20415;-74
2021/04/17 11:04:47;;;;;;;;;;;8.50;73.30;;;;;;4306086;33;20408;-74
2021/04/17 11:07:16;;;;;;;;;;;8.60;73.40;;;;;;4306101;33;20039;-74
2021/04/17 11:09:50;;;;;;;;;;;8.60;73.40;;;;;;4317100;33;42471;-74
2021/04/17 11:12:48;;;;;;;;;;;8.60;73.40;;;;;;4304904;33;42649;-74
2021/04/17 11:15:17;;;;;;;;;;;8.60;73.20;;;;;;4306367;33;43510;-74
2021/04/17 11:18:04;;;;;;;;;;;8.70;73.00;;;;;;4304958;33;38006;-74
2021/04/17 11:20:42;;;;;;;;;;;8.70;72.80;;;;;;4319435;33;20088;-74
2021/04/17 11:23:31;;;;;;;;;;;8.80;72.80;;;;;;4318988;33;20014;-74
2021/04/17 11:25:58;;;;;;;;;;;8.80;72.70;;;;;;4319285;33;20023;-75
2021/04/17 11:28:26;;;;;;;;;;;8.80;72.70;;;;;;4306077;33;20006;-74
2021/04/17 11:30:56;;;;;;;;;;;8.80;72.70;;;;;;4305834;33;20016;-74
2021/04/17 11:33:23;;;;;;;;;;;8.80;72.70;;;;;;4318547;33;20019;-74
2021/04/17 11:35:51;;;;;;;;;;;8.90;72.60;;;;;;4317577;33;20077;-74
2021/04/17 11:38:18;;;;;;;;;;;8.90;72.60;;;;;;4305532;33;20012;-75
2021/04/17 11:40:50;;;;;;;;;;;8.90;72.60;;;;;;4305773;33;20027;-74
2021/04/17 11:43:16;;;;;;;;;;;9.00;72.60;;;;;;4305507;33;20041;-75
2021/04/17 11:45:46;;;;;;;;;;;9.00;72.50;;;;;;4305923;33;20046;-74
2021/04/17 11:48:13;;;;;;;;;;;9.00;72.40;;;;;;4318173;33;20016;-74
2021/04/17 11:50:40;;;;;;;;;;;9.00;72.30;;;;;;4305540;33;20118;-75
2021/04/17 11:53:09;;;;;;;;;;;9.10;72.30;;;;;;4305600;33;20025;-74
2021/04/17 11:55:36;;;;;;;;;;;9.10;72.30;;;;;;4318629;33;20354;-74
2021/04/17 11:58:03;;;;;;;;;;;9.10;72.20;;;;;;4318428;33;20009;-75
2021/04/17 12:00:30;;;;;;;;;;;9.10;72.10;;;;;;4318457;33;20006;-74
2021/04/17 12:02:59;;;;;;;;;;;9.20;72.30;;;;;;4318370;33;20024;-75
2021/04/17 12:05:29;;;;;;;;;;;9.20;72.10;;;;;;4304996;33;20061;-75
2021/04/17 12:07:58;;;;;;;;;;;9.20;72.20;;;;;;4305601;33;20014;-74
2021/04/17 12:10:25;;;;;;;;;;;9.20;72.10;;;;;;4304887;33;20020;-74
2021/04/17 12:12:52;;;;;;;;;;;9.20;71.90;;;;;;4318152;33;20002;-74
2021/04/17 12:15:21;;;;;;;;;;;9.30;72.00;;;;;;4318542;33;20065;-74
2021/04/17 12:17:49;;;;;;;;;;;9.30;72.10;;;;;;4305388;33;20027;-74
2021/04/17 12:20:19;;;;;;;;;;;9.30;72.00;;;;;;4305451;33;20022;-75
2021/04/17 12:22:49;;;;;;;;;;;9.30;72.00;;;;;;4305296;33;20029;-74
2021/04/17 12:25:17;;;;;;;;;;;9.40;72.00;;;;;;4292841;33;20006;-75
2021/04/17 12:27:44;;;;;;;;;;;9.40;71.80;;;;;;4305107;33;20046;-74
2021/04/17 12:30:12;;;;;;;;;;;9.50;71.70;;;;;;4317737;33;20070;-74
2021/04/17 12:32:39;;;;;;;;;;;9.40;71.70;;;;;;4317118;33;20013;-74
2021/04/17 12:35:11;;;;;;;;;;;9.50;71.80;;;;;;4304958;33;19998;-74
2021/04/17 12:37:38;;;;;;;;;;;9.50;71.60;;;;;;4318265;33;20057;-74
2021/04/17 12:40:06;;;;;;;;;;;9.50;71.30;;;;;;4304625;33;20065;-74
2021/04/17 12:42:33;;;;;;;;;;;9.60;71.20;;;;;;4317704;33;20022;-74
2021/04/17 12:45:00;;;;;;;;;;;9.60;71.40;;;;;;4317451;33;20021;-74
2021/04/17 12:47:36;;;;;;;;;;;9.60;71.60;;;;;;4317837;33;20376;-74
2021/04/17 12:50:04;;;;;;;;;;;9.70;71.50;;;;;;4304564;33;20014;-74
2021/04/17 12:52:31;;;;;;;;;;;9.70;71.40;;;;;;4317565;33;20077;-74
2021/04/17 12:54:58;;;;;;;;;;;9.70;71.20;;;;;;4304628;33;20087;-74
2021/04/17 12:57:30;;;;;;;;;;;9.70;71.10;;;;;;4317474;33;20014;-74
2021/04/17 12:59:59;;;;;;;;;;;9.80;71.20;;;;;;4317542;33;20069;-74
2021/04/17 13:02:26;;;;;;;;;;;9.80;71.40;;;;;;4317355;33;20053;-74
2021/04/17 13:04:53;;;;;;;;;;;9.90;71.50;;;;;;4304419;33;20002;-74
2021/04/17 13:07:20;;;;;;;;;;;9.90;71.40;;;;;;4317707;33;20437;-74
2021/04/17 13:09:50;;;;;;;;;;;9.90;71.30;;;;;;4317280;33;20018;-74
2021/04/17 13:12:19;;;;;;;;;;;9.90;71.00;;;;;;4317725;33;20375;-74
2021/04/17 13:14:46;;;;;;;;;;;10.00;71.10;;;;;;4292477;33;20012;-74
2021/04/17 13:17:13;;;;;;;;;;;10.00;70.90;;;;;;4317284;33;20006;-74
2021/04/17 13:19:40;;;;;;;;;;;10.00;70.90;;;;;;4304283;33;20010;-74
2021/04/17 13:22:09;;;;;;;;;;;10.10;71.10;;;;;;4317373;33;20005;-74
2021/04/17 13:24:39;;;;;;;;;;;10.10;71.00;;;;;;4292423;33;20033;-74
2021/04/17 13:27:10;;;;;;;;;;;10.20;70.90;;;;;;4304227;33;20066;-74
2021/04/17 13:29:37;;;;;;;;;;;10.20;70.80;;;;;;4303802;33;20431;-74
2021/04/17 13:32:04;;;;;;;;;;;10.20;70.50;;;;;;4304391;33;20065;-74
2021/04/17 13:34:31;;;;;;;;;;;10.20;70.40;;;;;;4304265;33;20075;-74
2021/04/17 13:37:00;;;;;;;;;;;10.30;70.70;;;;;;4304424;33;20012;-74
2021/04/17 13:39:27;;;;;;;;;;;10.30;70.70;;;;;;4317563;33;20456;-74
2021/04/17 13:41:54;;;;;;;;;;;10.30;70.50;;;;;;4317444;33;20006;-74
2021/04/17 13:44:21;;;;;;;;;;;10.40;70.10;;;;;;4303731;33;20062;-74
2021/04/17 13:46:51;;;;;;;;;;;10.30;70.20;;;;;;4303923;33;20121;-74
2021/04/17 13:49:17;;;;;;;;;;;10.40;70.10;;;;;;4302622;33;20018;-75
2021/04/17 13:51:44;;;;;;;;;;;10.40;70.40;;;;;;4315060;33;20009;-74
2021/04/17 13:54:19;;;;;;;;;;;10.50;70.70;;;;;;4317103;33;20039;-74
2021/04/17 13:56:48;;;;;;;;;;;10.50;70.70;;;;;;4303886;33;20367;-74
2021/04/17 13:59:15;;;;;;;;;;;10.50;70.60;;;;;;4316756;33;20010;-74
2021/04/17 14:01:42;;;;;;;;;;;10.60;70.40;;;;;;4315580;33;20018;-74
2021/04/17 14:04:19;;;;;;;;;;;10.60;70.00;;;;;;4317474;33;20240;-75
2021/04/17 14:06:46;;;;;;;;;;;10.70;69.90;;;;;;4303901;33;20024;-75
2021/04/17 14:09:13;;;;;;;;;;;10.70;69.90;;;;;;4301407;33;20029;-75
2021/04/17 14:11:44;;;;;;;;;;;10.70;69.70;;;;;;4316839;33;20431;-74
2021/04/17 14:14:12;;;;;;;;;;;10.80;69.80;;;;;;4306457;33;20412;-75
2021/04/17 14:16:42;;;;;;;;;;;10.80;69.70;;;;;;4319844;33;20062;-74
2021/04/17 14:19:16;;;;;;;;;;;10.80;70.00;;;;;;4318627;33;20019;-74
2021/04/17 14:21:45;;;;;;;;;;;10.90;69.50;;;;;;4319925;33;20029;-74
2021/04/17 14:24:14;;;;;;;;;;;10.90;69.30;;;;;;4318511;33;20069;-74
2021/04/17 14:26:44;;;;;;;;;;;11.00;69.20;;;;;;4306468;33;20075;-74
2021/04/17 14:29:11;;;;;;;;;;;11.00;69.00;;;;;;4320057;33;20073;-74
2021/04/17 14:31:40;;;;;;;;;;;11.00;68.80;;;;;;4319823;33;20014;-74
2021/04/17 14:34:08;;;;;;;;;;;11.00;68.80;;;;;;4306862;33;20052;-74
2021/04/17 14:36:36;;;;;;;;;;;11.10;68.70;;;;;;4306509;33;20007;-75
2021/04/17 14:39:05;;;;;;;;;;;11.10;68.40;;;;;;4306231;33;20010;-75
2021/04/17 14:41:32;;;;;;;;;;;11.10;68.20;;;;;;4306222;33;20062;-74
2021/04/17 14:44:04;;;;;;;;;;;11.20;68.10;;;;;;4319925;33;20002;-74
2021/04/17 14:46:32;;;;;;;;;;;11.20;67.80;;;;;;4318753;33;20079;-74
2021/04/17 14:48:59;;;;;;;;;;;11.20;67.70;;;;;;4306339;33;19998;-74
2021/04/17 14:51:28;;;;;;;;;;;11.30;67.60;;;;;;4319189;33;20067;-74